createdAt,value
2022-11-04T00:00:02.460Z,75.34
2022-11-04T00:00:15.004Z,75.63
2022-11-04T00:00:29.831Z,75.24
2022-11-04T00:00:42.234Z,75.20
2022-11-04T00:00:54.304Z,75.34
2022-11-04T00:01:06.455Z,75.20
2022-11-04T00:01:18.685Z,75.44
2022-11-04T00:01:30.740Z,75.28
2022-11-04T00:01:44.991Z,74.98
2022-11-04T00:01:57.802Z,75.04
2022-11-04T00:02:09.801Z,75.11
2022-11-04T00:02:21.764Z,75.18
2022-11-04T00:02:33.742Z,74.79
2022-11-04T00:02:45.828Z,75.09
2022-11-04T00:02:58.047Z,74.87
2022-11-04T00:03:10.384Z,74.58
2022-11-04T00:03:22.518Z,75.04
2022-11-04T00:03:34.382Z,74.69
2022-11-04T00:03:46.594Z,74.61
2022-11-04T00:03:58.622Z,74.85
2022-11-04T00:04:12.124Z,74.70
2022-11-04T00:04:26.670Z,74.76
2022-11-04T00:04:38.541Z,74.73
2022-11-04T00:04:50.428Z,75.10
2022-11-04T00:05:02.342Z,75.21
2022-11-04T00:05:14.284Z,75.34
2022-11-04T00:05:26.208Z,75.37
2022-11-04T00:05:38.141Z,74.96
2022-11-04T00:05:50.016Z,75.16
2022-11-04T00:06:01.983Z,75.14
2022-11-04T00:06:13.882Z,75.45
2022-11-04T00:06:25.881Z,74.91
2022-11-04T00:06:38.204Z,75.10
2022-11-04T00:06:50.174Z,74.81
2022-11-04T00:07:02.053Z,75.14
2022-11-04T00:07:32.344Z,74.81
2022-11-04T00:08:02.542Z,75.06
2022-11-04T00:08:26.426Z,75.02
2022-11-04T00:08:38.323Z,75.40
2022-11-04T00:08:55.076Z,75.29
2022-11-04T00:09:09.520Z,75.17
2022-11-04T00:09:24.243Z,75.05
2022-11-04T00:09:36.123Z,75.29
2022-11-04T00:09:48.241Z,74.84
2022-11-04T00:10:00.108Z,74.76
2022-11-04T00:10:11.987Z,75.04
2022-11-04T00:10:43.828Z,75.04
2022-11-04T00:11:16.253Z,74.55
2022-11-04T00:11:47.092Z,74.70
2022-11-04T00:12:17.384Z,74.74
2022-11-04T00:12:29.266Z,74.94
2022-11-04T00:12:41.148Z,75.04
2022-11-04T00:12:53.092Z,74.68
2022-11-04T00:13:05.149Z,74.86
2022-11-04T00:13:17.216Z,74.01
2022-11-04T00:13:30.041Z,74.41
2022-11-04T00:13:42.584Z,74.13
2022-11-04T00:13:54.502Z,74.26
2022-11-04T00:14:08.370Z,74.44
2022-11-04T00:14:20.403Z,74.16
2022-11-04T00:14:33.106Z,74.16
2022-11-04T00:14:45.014Z,74.10
2022-11-04T00:15:16.879Z,74.45
2022-11-04T00:15:47.482Z,74.30
2022-11-04T00:16:20.914Z,74.32
2022-11-04T00:16:51.304Z,74.00
2022-11-04T00:17:19.869Z,73.94
2022-11-04T00:17:31.995Z,74.21
2022-11-04T00:17:43.861Z,73.85
2022-11-04T00:17:55.739Z,74.49
2022-11-04T00:18:07.611Z,74.30
2022-11-04T00:18:19.494Z,74.54
2022-11-04T00:18:31.430Z,74.34
2022-11-04T00:18:43.326Z,74.26
2022-11-04T00:18:55.621Z,74.41
2022-11-04T00:19:07.542Z,74.29
2022-11-04T00:19:19.802Z,74.06
2022-11-04T00:19:50.453Z,74.14
2022-11-04T00:20:21.070Z,74.07
2022-11-04T00:20:51.369Z,74.13
2022-11-04T00:21:22.166Z,74.68
2022-11-04T00:21:52.457Z,74.42
2022-11-04T00:22:22.776Z,74.31
2022-11-04T00:22:53.963Z,74.52
2022-11-04T00:23:24.153Z,74.76
2022-11-04T00:23:54.333Z,74.22
2022-11-04T00:24:26.575Z,74.63
2022-11-04T00:24:56.854Z,74.55
2022-11-04T00:25:28.788Z,74.17
2022-11-04T00:26:01.009Z,74.80
2022-11-04T00:26:31.572Z,74.80
2022-11-04T00:27:01.943Z,75.22
2022-11-04T00:27:37.948Z,75.16
2022-11-04T00:28:08.850Z,75.54
2022-11-04T00:28:39.434Z,75.04
2022-11-04T00:28:52.917Z,74.79
2022-11-04T00:29:04.814Z,75.13
2022-11-04T00:29:16.699Z,75.09
2022-11-04T00:29:28.654Z,74.97
2022-11-04T00:29:40.754Z,75.04
2022-11-04T00:29:52.684Z,75.52
2022-11-04T00:30:08.259Z,75.38
2022-11-04T00:30:20.147Z,75.82
2022-11-04T00:30:32.175Z,75.48
2022-11-04T00:30:44.047Z,75.44
2022-11-04T00:30:57.567Z,75.35
2022-11-04T00:31:28.308Z,75.60
2022-11-04T00:31:58.568Z,75.22
2022-11-04T00:32:29.212Z,74.72
2022-11-04T00:32:59.502Z,74.45
2022-11-04T00:33:26.281Z,74.30
2022-11-04T00:33:38.170Z,74.69
2022-11-04T00:33:52.026Z,74.90
2022-11-04T00:34:03.895Z,74.97
2022-11-04T00:34:15.858Z,74.58
2022-11-04T00:34:27.780Z,74.80
2022-11-04T00:34:39.647Z,74.91
2022-11-04T00:34:51.512Z,74.55
2022-11-04T00:35:03.563Z,74.45
2022-11-04T00:35:15.532Z,74.86
2022-11-04T00:35:27.413Z,74.92
2022-11-04T00:35:39.282Z,75.10
2022-11-04T00:35:55.752Z,75.01
2022-11-04T00:36:07.973Z,74.97
2022-11-04T00:36:20.923Z,75.10
2022-11-04T00:36:32.902Z,75.05
2022-11-04T00:36:44.782Z,74.83
2022-11-04T00:36:56.666Z,74.59
2022-11-04T00:37:08.630Z,74.59
2022-11-04T00:37:20.557Z,74.64
2022-11-04T00:37:32.430Z,74.58
2022-11-04T00:37:44.944Z,74.45
2022-11-04T00:37:56.801Z,74.62
2022-11-04T00:38:09.063Z,74.82
2022-11-04T00:38:21.964Z,74.88
2022-11-04T00:38:33.815Z,74.88
2022-11-04T00:38:45.958Z,74.80
2022-11-04T00:38:58.226Z,74.61
2022-11-04T00:39:10.070Z,75.04
2022-11-04T00:39:21.932Z,74.65
2022-11-04T00:39:33.805Z,74.96
2022-11-04T00:39:45.898Z,75.34
2022-11-04T00:39:57.808Z,75.49
2022-11-04T00:40:12.579Z,75.24
2022-11-04T00:40:24.460Z,75.04
2022-11-04T00:40:36.333Z,75.29
2022-11-04T00:40:48.301Z,75.13
2022-11-04T00:41:00.167Z,74.97
2022-11-04T00:41:25.854Z,74.88
2022-11-04T00:41:37.749Z,75.16
2022-11-04T00:41:49.594Z,75.33
2022-11-04T00:42:01.506Z,75.15
2022-11-04T00:42:13.351Z,75.29
2022-11-04T00:42:25.237Z,75.26
2022-11-04T00:42:37.418Z,75.64
2022-11-04T00:42:49.299Z,75.45
2022-11-04T00:43:01.199Z,75.49
2022-11-04T00:43:13.123Z,74.99
2022-11-04T00:43:24.987Z,74.90
2022-11-04T00:43:36.857Z,75.06
2022-11-04T00:43:48.746Z,75.24
2022-11-04T00:44:02.887Z,75.12
2022-11-04T00:44:14.777Z,75.11
2022-11-04T00:44:26.681Z,74.74
2022-11-04T00:44:38.550Z,75.10
2022-11-04T00:44:50.420Z,75.03
2022-11-04T00:45:02.653Z,74.83
2022-11-04T00:45:14.568Z,74.73
2022-11-04T00:45:26.440Z,74.73
2022-11-04T00:45:39.866Z,74.65
2022-11-04T00:45:51.765Z,75.06
2022-11-04T00:46:03.653Z,74.89
2022-11-04T00:46:15.514Z,75.11
2022-11-04T00:46:32.706Z,74.97
2022-11-04T00:46:44.584Z,74.82
2022-11-04T00:46:56.579Z,75.42
2022-11-04T00:47:08.468Z,75.52
2022-11-04T00:47:20.346Z,75.50
2022-11-04T00:47:32.652Z,75.31
2022-11-04T00:47:44.537Z,75.26
2022-11-04T00:47:56.382Z,75.53
2022-11-04T00:48:09.399Z,75.39
2022-11-04T00:48:21.478Z,75.32
2022-11-04T00:48:33.334Z,75.84
2022-11-04T00:48:45.196Z,75.48
2022-11-04T00:48:57.828Z,75.16
2022-11-04T00:49:09.771Z,75.08
2022-11-04T00:49:21.677Z,75.26
2022-11-04T00:49:33.546Z,74.93
2022-11-04T00:49:45.430Z,74.92
2022-11-04T00:49:57.312Z,75.06
2022-11-04T00:50:09.441Z,75.38
2022-11-04T00:50:21.307Z,75.19
2022-11-04T00:50:33.167Z,75.34
2022-11-04T00:50:45.009Z,74.89
2022-11-04T00:50:57.187Z,74.88
2022-11-04T00:51:09.088Z,75.16
2022-11-04T00:51:21.717Z,75.27
2022-11-04T00:51:33.714Z,74.87
2022-11-04T00:51:45.583Z,75.09
2022-11-04T00:51:57.535Z,75.34
2022-11-04T00:52:09.419Z,75.86
2022-11-04T00:52:21.862Z,75.48
2022-11-04T00:52:33.809Z,75.43
2022-11-04T00:52:45.692Z,75.50
2022-11-04T00:53:04.418Z,75.43
2022-11-04T00:53:16.303Z,75.03
2022-11-04T00:53:28.190Z,74.89
2022-11-04T00:53:40.264Z,75.10
2022-11-04T00:53:52.170Z,75.55
2022-11-04T00:54:04.384Z,75.14
2022-11-04T00:54:16.345Z,75.15
2022-11-04T00:54:28.253Z,74.90
2022-11-04T00:54:40.118Z,75.15
2022-11-04T00:54:51.968Z,75.17
2022-11-04T00:55:04.410Z,75.69
2022-11-04T00:55:16.426Z,75.64
2022-11-04T00:55:28.798Z,75.79
2022-11-04T00:55:40.768Z,75.23
2022-11-04T00:55:52.650Z,75.41
2022-11-04T00:56:04.820Z,75.39
2022-11-04T00:56:16.819Z,75.92
2022-11-04T00:56:28.790Z,75.68
2022-11-04T00:56:41.924Z,76.10
2022-11-04T00:56:54.019Z,75.85
2022-11-04T00:57:08.682Z,76.30
2022-11-04T00:57:20.559Z,76.24
2022-11-04T00:57:32.425Z,76.14
2022-11-04T00:57:44.293Z,75.99
2022-11-04T00:57:58.345Z,75.96
2022-11-04T00:58:10.218Z,75.76
2022-11-04T00:58:22.078Z,75.51
2022-11-04T00:58:33.973Z,75.54
2022-11-04T00:58:46.004Z,75.34
2022-11-04T00:59:01.121Z,75.33
2022-11-04T00:59:14.563Z,75.44
2022-11-04T00:59:26.693Z,75.79
2022-11-04T00:59:39.843Z,75.78
2022-11-04T00:59:51.730Z,76.09
2022-11-04T01:00:04.331Z,75.99
2022-11-04T01:00:16.407Z,76.19
2022-11-04T01:00:28.408Z,76.20
2022-11-04T01:00:40.513Z,76.13
2022-11-04T01:00:52.405Z,76.10
2022-11-04T01:01:12.081Z,75.98
2022-11-04T01:01:24.108Z,76.29
2022-11-04T01:01:36.259Z,76.39
2022-11-04T01:01:48.362Z,76.23
2022-11-04T01:02:00.458Z,76.22
2022-11-04T01:02:13.791Z,75.83
2022-11-04T01:02:26.298Z,75.64
2022-11-04T01:02:38.382Z,75.68
2022-11-04T01:02:50.290Z,75.64
2022-11-04T01:03:02.283Z,76.17
2022-11-04T01:03:14.131Z,76.34
2022-11-04T01:03:26.005Z,76.06
2022-11-04T01:03:38.741Z,76.31
2022-11-04T01:03:52.526Z,75.84
2022-11-04T01:04:04.614Z,75.96
2022-11-04T01:04:16.513Z,76.39
2022-11-04T01:04:28.574Z,76.74
2022-11-04T01:04:40.475Z,76.52
2022-11-04T01:04:52.338Z,76.96
2022-11-04T01:05:04.588Z,76.63
2022-11-04T01:05:16.559Z,76.81
2022-11-04T01:05:28.579Z,76.31
2022-11-04T01:05:40.678Z,75.96
2022-11-04T01:05:52.534Z,75.90
2022-11-04T01:06:05.598Z,76.11
2022-11-04T01:06:18.551Z,76.15
2022-11-04T01:06:30.461Z,76.11
2022-11-04T01:06:42.338Z,75.80
2022-11-04T01:06:54.220Z,75.87
2022-11-04T01:07:06.103Z,76.02
2022-11-04T01:07:18.019Z,75.97
2022-11-04T01:07:30.807Z,75.86
2022-11-04T01:07:43.906Z,75.98
2022-11-04T01:07:56.619Z,75.86
2022-11-04T01:08:08.482Z,75.98
2022-11-04T01:08:20.327Z,75.68
2022-11-04T01:08:32.644Z,75.60
2022-11-04T01:08:45.208Z,75.22
2022-11-04T01:09:01.902Z,74.88
2022-11-04T01:09:14.112Z,74.67
2022-11-04T01:09:26.040Z,75.03
2022-11-04T01:09:38.029Z,74.99
2022-11-04T01:09:49.899Z,75.35
2022-11-04T01:10:01.757Z,75.71
2022-11-04T01:10:13.737Z,75.80
2022-11-04T01:10:25.599Z,75.56
2022-11-04T01:10:44.490Z,75.80
2022-11-04T01:10:56.367Z,75.80
2022-11-04T01:11:09.617Z,75.66
2022-11-04T01:11:21.612Z,75.29
2022-11-04T01:11:34.041Z,75.82
2022-11-04T01:11:45.910Z,75.81
2022-11-04T01:11:57.801Z,75.88
2022-11-04T01:12:09.680Z,75.61
2022-11-04T01:12:21.608Z,76.12
2022-11-04T01:12:33.464Z,75.89
2022-11-04T01:12:45.364Z,75.64
2022-11-04T01:12:57.214Z,75.77
2022-11-04T01:13:09.426Z,76.09
2022-11-04T01:13:21.512Z,76.15
2022-11-04T01:13:33.886Z,75.82
2022-11-04T01:13:45.862Z,75.72
2022-11-04T01:13:58.597Z,75.50
2022-11-04T01:14:10.488Z,75.65
2022-11-04T01:14:23.186Z,75.47
2022-11-04T01:14:35.278Z,75.64
2022-11-04T01:14:49.682Z,75.42
2022-11-04T01:15:01.636Z,75.63
2022-11-04T01:15:13.503Z,75.36
2022-11-04T01:15:25.418Z,75.55
2022-11-04T01:15:38.137Z,75.34
2022-11-04T01:15:50.032Z,75.48
2022-11-04T01:16:05.056Z,75.95
2022-11-04T01:16:18.058Z,75.67
2022-11-04T01:16:30.955Z,75.62
2022-11-04T01:16:43.406Z,75.70
2022-11-04T01:16:55.283Z,75.48
2022-11-04T01:17:07.335Z,75.65
2022-11-04T01:17:19.238Z,75.75
2022-11-04T01:17:31.128Z,75.86
2022-11-04T01:17:43.063Z,75.76
2022-11-04T01:17:54.931Z,75.78
2022-11-04T01:18:07.351Z,75.47
2022-11-04T01:18:19.398Z,75.70
2022-11-04T01:18:31.547Z,75.63
2022-11-04T01:18:43.597Z,76.85
2022-11-04T01:18:55.532Z,76.27
2022-11-04T01:19:07.581Z,76.41
2022-11-04T01:19:19.553Z,76.31
2022-11-04T01:19:31.470Z,76.27
2022-11-04T01:19:43.737Z,76.34
2022-11-04T01:19:55.619Z,76.75
2022-11-04T01:20:07.941Z,76.88
2022-11-04T01:20:20.098Z,76.39
2022-11-04T01:20:33.513Z,76.44
2022-11-04T01:20:45.363Z,76.77
2022-11-04T01:21:01.516Z,76.09
2022-11-04T01:21:15.384Z,76.54
2022-11-04T01:21:27.319Z,76.05
2022-11-04T01:21:39.234Z,76.25
2022-11-04T01:21:52.687Z,76.09
2022-11-04T01:22:04.535Z,76.17
2022-11-04T01:22:16.460Z,76.21
2022-11-04T01:22:28.379Z,76.02
2022-11-04T01:22:40.495Z,75.92
2022-11-04T01:22:52.364Z,76.54
2022-11-04T01:23:04.255Z,76.52
2022-11-04T01:23:16.493Z,76.66
2022-11-04T01:23:28.604Z,76.51
2022-11-04T01:23:42.595Z,76.65
2022-11-04T01:23:54.482Z,76.46
2022-11-04T01:24:06.642Z,76.59
2022-11-04T01:24:19.094Z,76.26
2022-11-04T01:24:30.956Z,76.33
2022-11-04T01:24:42.855Z,76.28
2022-11-04T01:24:54.739Z,76.63
2022-11-04T01:25:07.425Z,76.63
2022-11-04T01:25:19.493Z,76.39
2022-11-04T01:25:31.347Z,76.92
2022-11-04T01:25:43.279Z,76.52
2022-11-04T01:25:55.688Z,76.51
2022-11-04T01:26:12.812Z,76.16
2022-11-04T01:26:25.954Z,76.57
2022-11-04T01:26:37.827Z,76.37
2022-11-04T01:26:49.798Z,76.52
2022-11-04T01:27:01.688Z,76.55
2022-11-04T01:27:13.597Z,76.66
2022-11-04T01:27:25.472Z,76.81
2022-11-04T01:27:37.387Z,76.08
2022-11-04T01:27:49.294Z,75.95
2022-11-04T01:28:01.197Z,76.20
2022-11-04T01:28:13.090Z,75.96
2022-11-04T01:28:24.969Z,76.17
2022-11-04T01:28:36.898Z,76.33
2022-11-04T01:28:49.229Z,75.97
2022-11-04T01:29:01.118Z,76.37
2022-11-04T01:29:12.996Z,76.48
2022-11-04T01:29:25.096Z,76.39
2022-11-04T01:29:37.008Z,76.19
2022-11-04T01:29:48.984Z,76.29
2022-11-04T01:30:00.894Z,76.69
2022-11-04T01:30:12.985Z,76.71
2022-11-04T01:30:24.858Z,76.95
2022-11-04T01:30:39.403Z,76.81
2022-11-04T01:30:51.293Z,76.70
2022-11-04T01:31:07.249Z,76.67
2022-11-04T01:31:24.403Z,76.55
2022-11-04T01:31:36.338Z,76.50
2022-11-04T01:31:48.237Z,77.12
2022-11-04T01:32:00.230Z,77.00
2022-11-04T01:32:12.129Z,76.47
2022-11-04T01:32:23.999Z,76.89
2022-11-04T01:32:35.904Z,76.73
2022-11-04T01:32:47.788Z,76.67
2022-11-04T01:32:59.672Z,76.62
2022-11-04T01:33:11.634Z,76.95
2022-11-04T01:33:24.839Z,76.99
2022-11-04T01:33:37.616Z,77.01
2022-11-04T01:33:51.273Z,77.03
2022-11-04T01:34:03.252Z,76.79
2022-11-04T01:34:15.129Z,77.01
2022-11-04T01:34:27.042Z,77.13
2022-11-04T01:34:42.452Z,77.21
2022-11-04T01:34:55.683Z,76.90
2022-11-04T01:35:07.932Z,76.64
2022-11-04T01:35:19.791Z,76.82
2022-11-04T01:35:31.907Z,76.76
2022-11-04T01:35:44.021Z,76.90
2022-11-04T01:35:59.763Z,76.54
2022-11-04T01:36:11.816Z,76.69
2022-11-04T01:36:23.873Z,76.80
2022-11-04T01:36:35.920Z,76.97
2022-11-04T01:36:47.788Z,77.07
2022-11-04T01:36:59.665Z,76.67
2022-11-04T01:37:11.590Z,76.60
2022-11-04T01:37:23.482Z,76.57
2022-11-04T01:37:35.538Z,76.57
2022-11-04T01:37:47.475Z,76.39
2022-11-04T01:37:59.397Z,76.71
2022-11-04T01:38:11.670Z,76.71
2022-11-04T01:38:23.681Z,77.00
2022-11-04T01:38:35.919Z,76.92
2022-11-04T01:38:48.004Z,76.35
2022-11-04T01:38:59.918Z,76.44
2022-11-04T01:39:12.925Z,76.31
2022-11-04T01:39:24.797Z,76.22
2022-11-04T01:39:36.676Z,76.50
2022-11-04T01:39:48.574Z,76.65
2022-11-04T01:40:00.475Z,76.42
2022-11-04T01:40:12.511Z,76.18
2022-11-04T01:40:24.853Z,76.31
2022-11-04T01:40:38.518Z,76.67
2022-11-04T01:40:50.480Z,76.77
2022-11-04T01:41:03.245Z,76.63
2022-11-04T01:41:24.923Z,76.63
2022-11-04T01:41:36.858Z,76.97
2022-11-04T01:41:48.774Z,77.04
2022-11-04T01:42:00.710Z,77.12
2022-11-04T01:42:14.992Z,76.93
2022-11-04T01:42:26.967Z,77.21
2022-11-04T01:42:38.854Z,77.40
2022-11-04T01:42:50.737Z,77.06
2022-11-04T01:43:02.634Z,77.48
2022-11-04T01:43:21.230Z,77.14
2022-11-04T01:44:22.140Z,77.40
2022-11-04T01:44:47.678Z,76.71
2022-11-04T01:45:00.956Z,77.19
2022-11-04T01:45:14.853Z,77.04
2022-11-04T01:45:27.268Z,77.29
2022-11-04T01:45:39.193Z,77.03
2022-11-04T01:46:01.220Z,77.32
2022-11-04T01:46:19.813Z,77.34
2022-11-04T01:46:38.751Z,77.71
2022-11-04T01:46:53.902Z,77.24
2022-11-04T01:47:06.003Z,77.33
2022-11-04T01:47:25.647Z,77.48
2022-11-04T01:47:43.574Z,77.60
2022-11-04T01:48:04.048Z,77.78
2022-11-04T01:48:22.350Z,77.15
2022-11-04T01:48:35.112Z,77.48
2022-11-04T01:48:47.240Z,77.33
2022-11-04T01:49:04.233Z,77.19
2022-11-04T01:49:26.067Z,77.05
2022-11-04T01:49:43.320Z,77.30
2022-11-04T01:50:04.938Z,77.14
2022-11-04T01:50:24.657Z,77.06
2022-11-04T01:50:37.269Z,77.02
2022-11-04T01:50:51.933Z,77.24
2022-11-04T01:51:05.815Z,77.28
2022-11-04T01:51:17.801Z,77.32
2022-11-04T01:51:35.669Z,77.04
2022-11-04T01:51:50.460Z,76.75
2022-11-04T01:52:11.128Z,76.89
2022-11-04T01:52:40.502Z,76.52
2022-11-04T01:53:00.480Z,76.89
2022-11-04T01:53:18.789Z,76.48
2022-11-04T01:53:34.394Z,76.30
2022-11-04T01:53:48.446Z,76.41
2022-11-04T01:54:01.549Z,76.49
2022-11-04T01:54:14.123Z,76.22
2022-11-04T01:54:26.972Z,76.30
2022-11-04T01:54:42.803Z,76.24
2022-11-04T01:54:57.430Z,76.22
2022-11-04T01:55:14.612Z,76.55
2022-11-04T01:55:31.595Z,76.54
2022-11-04T01:55:50.670Z,76.36
2022-11-04T01:56:12.137Z,76.41
2022-11-04T01:56:26.585Z,76.23
2022-11-04T01:56:41.963Z,76.47
2022-11-04T01:56:55.023Z,76.11
2022-11-04T01:57:15.072Z,76.41
2022-11-04T01:57:36.470Z,76.78
2022-11-04T01:57:50.387Z,76.91
2022-11-04T01:58:08.047Z,77.10
2022-11-04T01:58:23.154Z,77.38
2022-11-04T01:58:35.290Z,77.49
2022-11-04T01:58:52.049Z,77.24
2022-11-04T01:59:12.589Z,77.09
2022-11-04T01:59:28.308Z,77.25
2022-11-04T01:59:40.928Z,76.73
2022-11-04T01:59:53.006Z,76.94
2022-11-04T02:00:07.664Z,77.28
2022-11-04T02:00:19.739Z,76.67
2022-11-04T02:00:32.914Z,77.26
2022-11-04T02:00:45.083Z,76.86
2022-11-04T02:00:57.000Z,77.14
2022-11-04T02:01:11.232Z,77.10
2022-11-04T02:01:23.819Z,76.81
2022-11-04T02:01:35.948Z,76.65
2022-11-04T02:01:48.108Z,76.88
2022-11-04T02:02:00.231Z,76.48
2022-11-04T02:02:12.368Z,76.40
2022-11-04T02:02:24.536Z,76.50
2022-11-04T02:02:46.321Z,76.89
2022-11-04T02:03:09.097Z,76.62
2022-11-04T02:03:28.493Z,76.66
2022-11-04T02:03:54.346Z,76.94
2022-11-04T02:04:24.832Z,76.94
2022-11-04T02:04:38.304Z,76.88
2022-11-04T02:04:50.262Z,76.67
2022-11-04T02:05:02.147Z,76.91
2022-11-04T02:05:14.161Z,76.56
2022-11-04T02:05:28.316Z,76.73
2022-11-04T02:05:41.819Z,76.51
2022-11-04T02:05:54.675Z,76.40
2022-11-04T02:06:07.731Z,76.76
2022-11-04T02:06:22.016Z,76.93
2022-11-04T02:06:33.943Z,76.95
2022-11-04T02:06:47.894Z,76.94
2022-11-04T02:07:02.255Z,76.94
2022-11-04T02:07:14.431Z,77.00
2022-11-04T02:07:27.390Z,77.01
2022-11-04T02:07:39.299Z,77.10
2022-11-04T02:07:55.021Z,77.05
2022-11-04T02:08:09.249Z,77.23
2022-11-04T02:08:21.858Z,77.06
2022-11-04T02:08:34.771Z,76.65
2022-11-04T02:08:47.884Z,77.05
2022-11-04T02:08:59.846Z,76.99
2022-11-04T02:09:12.613Z,76.65
2022-11-04T02:09:26.763Z,76.07
2022-11-04T02:09:40.267Z,76.32
2022-11-04T02:09:53.039Z,76.95
2022-11-04T02:10:05.571Z,76.98
2022-11-04T02:10:20.140Z,77.04
2022-11-04T02:10:33.160Z,76.91
2022-11-04T02:10:56.115Z,77.22
2022-11-04T02:11:08.055Z,77.10
2022-11-04T02:11:38.659Z,76.99
2022-11-04T02:12:09.179Z,77.24
2022-11-04T02:12:39.580Z,77.08
2022-11-04T02:12:51.948Z,76.98
2022-11-04T02:13:05.710Z,76.67
2022-11-04T02:13:18.443Z,76.95
2022-11-04T02:13:32.511Z,77.25
2022-11-04T02:13:44.396Z,76.56
2022-11-04T02:13:56.334Z,76.55
2022-11-04T02:14:08.241Z,76.82
2022-11-04T02:14:20.164Z,76.92
2022-11-04T02:14:34.665Z,76.87
2022-11-04T02:14:48.992Z,76.99
2022-11-04T02:15:00.923Z,76.63
2022-11-04T02:15:12.821Z,76.90
2022-11-04T02:15:53.292Z,76.51
2022-11-04T02:16:21.099Z,76.29
2022-11-04T02:16:44.713Z,76.10
2022-11-04T02:17:09.857Z,76.04
2022-11-04T02:17:45.725Z,76.49
2022-11-04T02:18:16.015Z,76.58
2022-11-04T02:18:46.459Z,76.74
2022-11-04T02:19:14.628Z,76.71
2022-11-04T02:19:44.582Z,76.90
2022-11-04T02:20:08.447Z,76.78
2022-11-04T02:20:25.972Z,76.72
2022-11-04T02:21:08.333Z,77.36
2022-11-04T02:21:55.503Z,77.58
2022-11-04T02:22:22.114Z,77.49
2022-11-04T02:23:00.037Z,77.32
2022-11-04T02:23:42.446Z,77.21
2022-11-04T02:24:09.247Z,77.03
2022-11-04T02:24:47.489Z,77.16
2022-11-04T02:25:11.382Z,76.98
2022-11-04T02:25:26.042Z,77.19
2022-11-04T02:25:40.739Z,77.12
2022-11-04T02:26:30.106Z,76.78
2022-11-04T02:26:52.766Z,76.63
2022-11-04T02:27:43.446Z,76.94
2022-11-04T02:28:32.522Z,77.72
2022-11-04T02:28:50.192Z,77.21
2022-11-04T02:29:20.463Z,77.53
2022-11-04T02:30:03.977Z,76.97
2022-11-04T02:30:20.870Z,77.10
2022-11-04T02:30:46.512Z,77.30
2022-11-04T02:31:23.809Z,76.68
2022-11-04T02:32:08.910Z,76.96
2022-11-04T02:32:44.118Z,76.38
2022-11-04T02:33:14.319Z,76.50
2022-11-04T02:33:38.540Z,76.58
2022-11-04T02:34:19.618Z,76.26
2022-11-04T02:34:43.254Z,76.76
2022-11-04T02:35:19.743Z,76.69
2022-11-04T02:35:49.878Z,76.78
2022-11-04T02:36:17.497Z,77.18
2022-11-04T02:36:42.352Z,77.00
2022-11-04T02:37:22.353Z,76.94
2022-11-04T02:38:03.284Z,76.22
2022-11-04T02:38:37.725Z,76.11
2022-11-04T02:38:59.185Z,76.41
2022-11-04T02:39:35.138Z,76.45
2022-11-04T02:40:11.178Z,76.73
2022-11-04T02:40:40.230Z,77.13
2022-11-04T02:41:08.946Z,76.70
2022-11-04T02:41:28.940Z,76.54
2022-11-04T02:41:53.255Z,76.74
2022-11-04T02:42:17.487Z,77.26
2022-11-04T02:42:43.878Z,77.23
2022-11-04T02:43:04.010Z,76.91
2022-11-04T02:43:28.686Z,76.65
2022-11-04T02:44:13.597Z,77.13
2022-11-04T02:44:45.619Z,76.71
2022-11-04T02:45:09.199Z,76.76
2022-11-04T02:45:23.039Z,76.68
2022-11-04T02:45:50.389Z,76.72
2022-11-04T02:46:16.980Z,76.66
2022-11-04T02:46:40.143Z,76.66
2022-11-04T02:47:00.032Z,76.22
2022-11-04T02:47:17.328Z,76.66
2022-11-04T02:47:31.427Z,76.66
2022-11-04T02:47:54.186Z,76.73
2022-11-04T02:48:12.609Z,76.79
2022-11-04T02:48:35.677Z,76.86
2022-11-04T02:48:57.308Z,77.01
2022-11-04T02:49:15.818Z,76.87
2022-11-04T02:49:57.909Z,76.69
2022-11-04T02:50:17.156Z,76.76
2022-11-04T02:50:45.210Z,77.08
2022-11-04T02:51:07.992Z,76.57
2022-11-04T02:51:36.516Z,76.43
2022-11-04T02:52:08.271Z,76.68
2022-11-04T02:52:27.776Z,76.59
2022-11-04T02:52:53.250Z,76.83
2022-11-04T02:53:31.436Z,76.90
2022-11-04T02:54:06.035Z,76.69
2022-11-04T02:54:28.463Z,76.31
2022-11-04T02:54:58.471Z,76.21
2022-11-04T02:55:19.856Z,76.57
2022-11-04T02:55:49.424Z,76.37
2022-11-04T02:56:04.076Z,76.69
2022-11-04T02:56:19.229Z,76.88
2022-11-04T02:56:36.193Z,76.87
2022-11-04T02:56:51.405Z,76.93
2022-11-04T02:57:07.942Z,76.71
2022-11-04T02:57:25.043Z,76.95
2022-11-04T02:57:42.057Z,77.13
2022-11-04T02:57:56.528Z,77.47
2022-11-04T02:58:17.564Z,77.08
2022-11-04T02:58:34.509Z,77.05
2022-11-04T02:58:54.822Z,77.37
2022-11-04T02:59:14.277Z,77.23
2022-11-04T02:59:35.205Z,77.21
2022-11-04T02:59:55.799Z,76.95
2022-11-04T03:00:10.813Z,76.81
2022-11-04T03:00:22.732Z,76.75
2022-11-04T03:00:39.195Z,77.06
2022-11-04T03:00:54.804Z,76.66
2022-11-04T03:01:11.672Z,76.56
2022-11-04T03:01:29.363Z,76.74
2022-11-04T03:01:45.260Z,76.42
2022-11-04T03:02:00.322Z,76.26
2022-11-04T03:02:19.317Z,76.22
2022-11-04T03:02:45.427Z,76.79
2022-11-04T03:03:01.676Z,76.89
2022-11-04T03:03:19.381Z,77.18
2022-11-04T03:03:37.378Z,76.80
2022-11-04T03:03:56.317Z,77.28
2022-11-04T03:04:18.082Z,76.93
2022-11-04T03:04:34.213Z,76.95
2022-11-04T03:04:50.459Z,77.41
2022-11-04T03:05:07.210Z,77.38
2022-11-04T03:05:26.129Z,77.42
2022-11-04T03:05:42.258Z,77.75
2022-11-04T03:05:57.923Z,77.64
2022-11-04T03:06:13.901Z,77.76
2022-11-04T03:06:27.735Z,77.59
2022-11-04T03:06:41.382Z,77.33
2022-11-04T03:06:56.267Z,77.44
2022-11-04T03:07:34.631Z,77.32
2022-11-04T03:07:49.391Z,77.79
2022-11-04T03:08:06.916Z,77.85
2022-11-04T03:08:26.864Z,77.95
2022-11-04T03:08:42.788Z,77.91
2022-11-04T03:08:55.756Z,77.28
2022-11-04T03:09:10.032Z,77.38
2022-11-04T03:09:23.585Z,77.18
2022-11-04T03:09:39.284Z,77.32
2022-11-04T03:09:58.288Z,77.61
2022-11-04T03:10:23.279Z,77.52
2022-11-04T03:10:45.364Z,77.55
2022-11-04T03:11:11.524Z,77.30
2022-11-04T03:11:25.501Z,77.35
2022-11-04T03:11:40.527Z,77.66
2022-11-04T03:11:57.619Z,77.37
2022-11-04T03:12:16.874Z,77.24
2022-11-04T03:12:36.822Z,77.40
2022-11-04T03:12:55.032Z,77.20
2022-11-04T03:13:14.073Z,77.06
2022-11-04T03:13:36.542Z,76.91
2022-11-04T03:14:03.529Z,77.16
2022-11-04T03:14:44.478Z,76.98
2022-11-04T03:15:04.749Z,77.04
2022-11-04T03:15:24.733Z,77.46
2022-11-04T03:15:39.835Z,77.07
2022-11-04T03:15:58.059Z,77.13
2022-11-04T03:16:23.688Z,77.49
2022-11-04T03:16:43.818Z,77.15
2022-11-04T03:17:03.806Z,77.18
2022-11-04T03:17:27.439Z,77.54
2022-11-04T03:18:00.363Z,77.39
2022-11-04T03:18:29.399Z,77.49
2022-11-04T03:18:47.176Z,77.30
2022-11-04T03:19:13.948Z,77.49
2022-11-04T03:19:54.974Z,77.12
2022-11-04T03:20:11.706Z,77.17
2022-11-04T03:20:27.300Z,77.57
2022-11-04T03:20:41.065Z,77.22
2022-11-04T03:20:58.122Z,77.53
2022-11-04T03:21:12.928Z,77.61
2022-11-04T03:21:27.129Z,77.98
2022-11-04T03:21:46.658Z,77.79
2022-11-04T03:22:04.165Z,77.41
2022-11-04T03:22:22.072Z,78.10
2022-11-04T03:22:36.845Z,77.50
2022-11-04T03:22:49.096Z,78.37
2022-11-04T03:23:01.177Z,77.90
2022-11-04T03:23:13.633Z,78.02
2022-11-04T03:23:25.800Z,77.77
2022-11-04T03:23:38.154Z,77.90
2022-11-04T03:23:50.358Z,77.84
2022-11-04T03:24:03.539Z,77.31
2022-11-04T03:24:15.615Z,77.54
2022-11-04T03:24:28.261Z,77.54
2022-11-04T03:24:42.380Z,77.70
2022-11-04T03:24:55.050Z,77.47
2022-11-04T03:25:08.978Z,77.88
2022-11-04T03:25:24.397Z,77.65
2022-11-04T03:25:47.726Z,77.52
2022-11-04T03:26:21.764Z,78.26
2022-11-04T03:26:38.631Z,78.21
2022-11-04T03:27:26.199Z,78.15
2022-11-04T03:27:49.715Z,77.92
2022-11-04T03:28:12.418Z,78.02
2022-11-04T03:28:50.987Z,77.98
2022-11-04T03:29:15.035Z,77.50
2022-11-04T03:29:32.710Z,78.14
2022-11-04T03:29:59.405Z,77.56
2022-11-04T03:30:45.929Z,77.45
2022-11-04T03:31:03.223Z,77.83
2022-11-04T03:31:25.593Z,77.62
2022-11-04T03:31:49.094Z,77.45
2022-11-04T03:32:05.053Z,77.59
2022-11-04T03:32:49.138Z,77.98
2022-11-04T03:33:17.492Z,77.81
2022-11-04T03:33:36.080Z,77.95
2022-11-04T03:33:51.078Z,78.13
2022-11-04T03:34:02.993Z,78.39
2022-11-04T03:34:14.952Z,78.10
2022-11-04T03:34:26.872Z,77.86
2022-11-04T03:34:38.943Z,78.08
2022-11-04T03:34:51.794Z,78.43